createdAt,value
2016-11-27T00:00:47.701Z,1007.24
2016-11-27T00:01:47.718Z,1007.24
2016-11-27T00:02:47.734Z,1007.22
2016-11-27T00:03:47.753Z,1007.13
2016-11-27T00:04:47.768Z,1007.17
2016-11-27T00:05:47.785Z,1007.14
2016-11-27T00:06:47.806Z,1007.11
2016-11-27T00:07:47.823Z,1007.04
2016-11-27T00:08:47.840Z,1007.07
2016-11-27T00:10:47.874Z,1007.04
2016-11-27T00:11:47.890Z,1007.1
2016-11-27T00:12:47.910Z,1007.1
2016-11-27T00:13:47.925Z,1007.07
2016-11-27T00:14:47.943Z,1007.12
2016-11-27T00:15:47.962Z,1007.11
2016-11-27T00:16:47.979Z,1007.14
2016-11-27T00:17:47.997Z,1007.15
2016-11-27T00:18:48.013Z,1007.12
2016-11-27T00:19:48.029Z,1007.05
2016-11-27T00:20:48.048Z,1006.98
2016-11-27T00:21:48.064Z,1006.98
2016-11-27T00:22:48.081Z,1006.86
2016-11-27T00:23:48.101Z,1006.93
2016-11-27T00:24:48.118Z,1006.98
2016-11-27T00:25:48.134Z,1007
2016-11-27T00:26:48.153Z,1007.13
2016-11-27T00:27:48.168Z,1007.11
2016-11-27T00:28:48.186Z,1007.17
2016-11-27T00:29:48.203Z,1007.17
2016-11-27T00:30:48.220Z,1007.14
2016-11-27T00:31:48.240Z,1006.96
2016-11-27T00:32:48.256Z,1006.95
2016-11-27T00:33:48.273Z,1006.92
2016-11-27T00:34:48.290Z,1006.9
2016-11-27T00:35:48.308Z,1006.98
2016-11-27T00:36:48.328Z,1007.03
2016-11-27T00:37:48.344Z,1007.1
2016-11-27T00:38:48.360Z,1007.14
2016-11-27T00:39:48.380Z,1007.06
2016-11-27T00:40:48.395Z,1007.05
2016-11-27T00:42:48.430Z,1006.95
2016-11-27T00:43:48.448Z,1006.97
2016-11-27T00:44:48.465Z,1007.02
2016-11-27T00:45:48.484Z,1007.02
2016-11-27T00:46:48.500Z,1007.06
2016-11-27T00:47:48.518Z,1007.06
2016-11-27T00:48:48.537Z,1007.11
2016-11-27T00:49:48.554Z,1007.1
2016-11-27T00:50:48.572Z,1007.13
2016-11-27T00:51:48.587Z,1007.13
2016-11-27T00:52:48.606Z,1007.04
2016-11-27T00:53:48.625Z,1006.94
2016-11-27T00:54:48.640Z,1006.85
2016-11-27T00:55:48.657Z,1006.85
2016-11-27T00:56:48.675Z,1006.79
2016-11-27T00:58:48.712Z,1007.02
2016-11-27T00:59:48.727Z,1007.03
2016-11-27T01:00:48.747Z,1007.05
2016-11-27T01:01:48.765Z,1007.01
2016-11-27T01:02:48.781Z,1006.93
2016-11-27T01:03:48.800Z,1006.85
2016-11-27T01:04:48.817Z,1006.84
2016-11-27T01:05:48.835Z,1006.94
2016-11-27T01:06:48.851Z,1006.96
2016-11-27T01:07:48.870Z,1007.05
2016-11-27T01:08:48.888Z,1007.09
2016-11-27T01:09:48.906Z,1007.03
2016-11-27T01:10:48.923Z,1007.03
2016-11-27T01:11:48.940Z,1007.03
2016-11-27T01:12:48.958Z,1006.99
2016-11-27T01:14:48.991Z,1007.1
2016-11-27T01:15:49.009Z,1007.04
2016-11-27T01:16:49.027Z,1007.04
2016-11-27T01:17:49.046Z,1007.12
2016-11-27T01:18:49.062Z,1007.11
2016-11-27T01:19:49.082Z,1007.12
2016-11-27T01:20:49.100Z,1007.03
2016-11-27T01:21:49.115Z,1007.03
2016-11-27T01:22:49.135Z,1006.96
2016-11-27T01:23:49.153Z,1006.96
2016-11-27T01:24:49.168Z,1007
2016-11-27T01:25:49.188Z,1007.04
2016-11-27T01:26:49.204Z,1007.12
2016-11-27T01:27:49.222Z,1007.07
2016-11-27T01:28:49.238Z,1007.11
2016-11-27T01:30:49.275Z,1006.99
2016-11-27T01:31:49.295Z,1007
2016-11-27T01:32:49.310Z,1007.02
2016-11-27T01:33:49.330Z,1007.03
2016-11-27T01:34:49.347Z,1007.07
2016-11-27T01:35:49.365Z,1007.08
2016-11-27T01:36:49.381Z,1007.02
2016-11-27T01:37:49.401Z,1006.95
2016-11-27T01:38:49.419Z,1006.91
2016-11-27T01:39:49.434Z,1006.82
2016-11-27T01:40:49.452Z,1006.89
2016-11-27T01:41:49.470Z,1006.82
2016-11-27T01:42:49.488Z,1006.82
2016-11-27T01:43:49.508Z,1006.84
2016-11-27T01:45:49.542Z,1006.83
2016-11-27T01:46:49.559Z,1006.75
2016-11-27T01:47:49.577Z,1006.73
2016-11-27T01:48:49.598Z,1006.75
2016-11-27T01:49:49.616Z,1006.78
2016-11-27T01:50:49.633Z,1006.84
2016-11-27T01:51:49.651Z,1006.85
2016-11-27T01:52:49.667Z,1006.82
2016-11-27T01:53:49.684Z,1006.78
2016-11-27T01:54:49.704Z,1006.84
2016-11-27T01:55:49.720Z,1006.84
2016-11-27T01:56:49.739Z,1006.87
2016-11-27T01:57:49.756Z,1006.87
2016-11-27T01:58:49.774Z,1006.88
2016-11-27T01:59:49.792Z,1006.84
2016-11-27T02:00:49.814Z,1006.85
2016-11-27T02:01:49.828Z,1006.79
2016-11-27T02:02:49.852Z,1006.78
2016-11-27T02:03:49.865Z,1006.77
2016-11-27T02:04:49.883Z,1006.79
2016-11-27T02:05:49.901Z,1006.8
2016-11-27T02:06:49.918Z,1006.79
2016-11-27T02:07:49.938Z,1006.84
2016-11-27T02:08:49.953Z,1006.81
2016-11-27T02:09:49.973Z,1006.77
2016-11-27T02:10:49.990Z,1006.78
2016-11-27T02:11:50.010Z,1006.75
2016-11-27T02:12:50.026Z,1006.74
2016-11-27T02:13:50.045Z,1006.75
2016-11-27T02:14:50.062Z,1006.75
2016-11-27T02:15:50.080Z,1006.74
2016-11-27T02:17:50.116Z,1006.77
2016-11-27T02:18:50.138Z,1006.75
2016-11-27T02:19:50.153Z,1006.77
2016-11-27T02:20:50.173Z,1006.75
2016-11-27T02:21:50.188Z,1006.72
2016-11-27T02:22:50.208Z,1006.73
2016-11-27T02:23:50.225Z,1006.77
2016-11-27T02:24:50.243Z,1006.86
2016-11-27T02:25:50.263Z,1006.85
2016-11-27T02:26:50.279Z,1006.84
2016-11-27T02:27:50.297Z,1006.78
2016-11-27T02:28:50.316Z,1006.68
2016-11-27T02:29:50.332Z,1006.7
2016-11-27T02:30:50.349Z,1006.77
2016-11-27T02:31:50.369Z,1006.73
2016-11-27T02:33:50.407Z,1006.7
2016-11-27T02:34:50.422Z,1006.66
2016-11-27T02:35:50.440Z,1006.71
2016-11-27T02:36:50.509Z,1006.7
2016-11-27T02:37:50.477Z,1006.72
2016-11-27T02:38:50.496Z,1006.72
2016-11-27T02:39:50.514Z,1006.58
2016-11-27T02:40:50.531Z,1006.67
2016-11-27T02:41:50.548Z,1006.68
2016-11-27T02:42:50.569Z,1006.65
2016-11-27T02:43:50.587Z,1006.66
2016-11-27T02:44:50.603Z,1006.69
2016-11-27T02:45:50.621Z,1006.67
2016-11-27T02:46:50.639Z,1006.72
2016-11-27T02:47:50.658Z,1006.72
2016-11-27T02:49:50.696Z,1006.76
2016-11-27T02:50:50.712Z,1006.68
2016-11-27T02:51:50.732Z,1006.72
2016-11-27T02:52:50.750Z,1006.66
2016-11-27T02:53:50.768Z,1006.71
2016-11-27T02:54:50.786Z,1006.64
2016-11-27T02:55:50.805Z,1006.57
2016-11-27T02:56:50.822Z,1006.69
2016-11-27T02:57:50.839Z,1006.62
2016-11-27T02:58:50.859Z,1006.62
2016-11-27T02:59:50.877Z,1006.63
2016-11-27T03:00:50.895Z,1006.56
2016-11-27T03:01:50.912Z,1006.6
2016-11-27T03:02:50.932Z,1006.66
2016-11-27T03:03:50.948Z,1006.73
2016-11-27T03:05:50.986Z,1006.65
2016-11-27T03:06:51.005Z,1006.55
2016-11-27T03:07:51.022Z,1006.62
2016-11-27T03:08:51.041Z,1006.63
2016-11-27T03:09:51.059Z,1006.64
2016-11-27T03:10:51.075Z,1006.71
2016-11-27T03:11:51.093Z,1006.66
2016-11-27T03:12:51.111Z,1006.62
2016-11-27T03:13:51.130Z,1006.53
2016-11-27T03:14:51.156Z,1006.59
2016-11-27T03:15:51.166Z,1006.63
2016-11-27T03:16:51.187Z,1006.67
2016-11-27T03:17:51.205Z,1006.61
2016-11-27T03:18:51.222Z,1006.7
2016-11-27T03:20:51.261Z,1006.75
2016-11-27T03:21:51.279Z,1006.66
2016-11-27T03:22:51.298Z,1006.68
2016-11-27T03:23:51.316Z,1006.67
2016-11-27T03:24:51.334Z,1006.66
2016-11-27T03:25:51.350Z,1006.67
2016-11-27T03:26:51.370Z,1006.65
2016-11-27T03:27:51.387Z,1006.68
2016-11-27T03:28:51.404Z,1006.66
2016-11-27T03:29:51.425Z,1006.68
2016-11-27T03:30:51.442Z,1006.7
2016-11-27T03:31:51.462Z,1006.75
2016-11-27T03:32:51.478Z,1006.66
2016-11-27T03:33:51.499Z,1006.69
2016-11-27T03:34:51.566Z,1006.65
2016-11-27T03:35:51.534Z,1006.72
2016-11-27T03:36:51.553Z,1006.71
2016-11-27T03:37:51.570Z,1006.71
2016-11-27T03:38:51.588Z,1006.75
2016-11-27T03:39:51.605Z,1006.71
2016-11-27T03:40:51.624Z,1006.72
2016-11-27T03:41:51.645Z,1006.64
2016-11-27T03:42:51.664Z,1006.74
2016-11-27T03:43:51.681Z,1006.74
2016-11-27T03:44:51.700Z,1006.74
2016-11-27T03:45:51.717Z,1006.73
2016-11-27T03:46:51.737Z,1006.71
2016-11-27T03:47:51.753Z,1006.62
2016-11-27T03:48:51.771Z,1006.63
2016-11-27T03:49:51.792Z,1006.63
2016-11-27T03:50:51.809Z,1006.56
2016-11-27T03:52:51.845Z,1006.62
2016-11-27T03:53:51.866Z,1006.62
2016-11-27T03:54:51.883Z,1006.49
2016-11-27T03:55:51.899Z,1006.66
2016-11-27T03:56:51.919Z,1006.58
2016-11-27T03:57:51.937Z,1006.54
2016-11-27T03:58:51.955Z,1006.59
2016-11-27T03:59:52.023Z,1006.59
2016-11-27T04:00:51.994Z,1006.61
2016-11-27T04:01:52.011Z,1006.63
2016-11-27T04:02:52.028Z,1006.61
2016-11-27T04:03:52.046Z,1006.51
2016-11-27T04:04:52.065Z,1006.53
2016-11-27T04:05:52.082Z,1006.58
2016-11-27T04:06:52.101Z,1006.62
2016-11-27T04:08:52.138Z,1006.64
2016-11-27T04:09:52.156Z,1006.62
2016-11-27T04:10:52.177Z,1006.66
2016-11-27T04:11:52.193Z,1006.61
2016-11-27T04:12:52.210Z,1006.64
2016-11-27T04:13:52.231Z,1006.65
2016-11-27T04:14:52.250Z,1006.69
2016-11-27T04:15:52.266Z,1006.73
2016-11-27T04:16:52.286Z,1006.66
2016-11-27T04:17:52.302Z,1006.65
2016-11-27T04:18:52.321Z,1006.65
2016-11-27T04:19:52.339Z,1006.67
2016-11-27T04:20:52.359Z,1006.64
2016-11-27T04:21:52.375Z,1006.66
2016-11-27T04:22:52.396Z,1006.63
2016-11-27T04:24:52.430Z,1006.68
2016-11-27T04:25:52.451Z,1006.7
2016-11-27T04:26:52.471Z,1006.71
2016-11-27T04:27:52.486Z,1006.67
2016-11-27T04:28:52.504Z,1006.68
2016-11-27T04:29:52.530Z,1006.68
2016-11-27T04:30:52.543Z,1006.71
2016-11-27T04:31:52.558Z,1006.75
2016-11-27T04:32:52.577Z,1006.75
2016-11-27T04:33:52.596Z,1006.72
2016-11-27T04:34:52.613Z,1006.73
2016-11-27T04:35:52.632Z,1006.87
2016-11-27T04:36:52.653Z,1006.74
2016-11-27T04:37:52.671Z,1006.74
2016-11-27T04:38:52.687Z,1006.73
2016-11-27T04:40:52.726Z,1006.82
2016-11-27T04:41:52.744Z,1006.79
2016-11-27T04:42:52.764Z,1006.81
2016-11-27T04:43:52.783Z,1006.77
2016-11-27T04:44:52.799Z,1006.71
2016-11-27T04:45:52.816Z,1006.75
2016-11-27T04:46:52.833Z,1006.72
2016-11-27T04:47:52.853Z,1006.75
2016-11-27T04:48:52.870Z,1006.82
2016-11-27T04:49:52.889Z,1006.87
2016-11-27T04:50:52.908Z,1006.81
2016-11-27T04:51:52.926Z,1006.83
2016-11-27T04:52:52.956Z,1006.84
2016-11-27T04:53:52.961Z,1006.82
2016-11-27T04:55:52.998Z,1006.97
2016-11-27T04:56:53.018Z,1006.98
2016-11-27T04:57:53.040Z,1006.95
2016-11-27T04:58:53.053Z,1006.87
2016-11-27T04:59:53.073Z,1006.89
2016-11-27T05:00:53.089Z,1006.94
2016-11-27T05:01:53.107Z,1006.86
2016-11-27T05:02:53.126Z,1006.91
2016-11-27T05:03:53.147Z,1006.92
2016-11-27T05:04:53.164Z,1006.94
2016-11-27T05:05:53.181Z,1007.01
2016-11-27T05:06:53.199Z,1007
2016-11-27T05:07:53.216Z,1006.98
2016-11-27T05:08:53.237Z,1006.94
2016-11-27T05:09:53.255Z,1006.95
2016-11-27T05:10:53.274Z,1006.99
2016-11-27T05:11:53.289Z,1007.01
2016-11-27T05:12:53.309Z,1006.95
2016-11-27T05:13:53.326Z,1006.96
2016-11-27T05:14:53.345Z,1007.08
2016-11-27T05:15:53.361Z,1007.02
2016-11-27T05:16:53.382Z,1007.09
2016-11-27T05:17:53.400Z,1007.05
2016-11-27T05:18:53.416Z,1007.03
2016-11-27T05:19:53.434Z,1007.03
2016-11-27T05:20:53.452Z,1007.03
2016-11-27T05:21:53.471Z,1007.12
2016-11-27T05:22:53.490Z,1007.1
2016-11-27T05:23:53.506Z,1007.09
2016-11-27T05:24:53.524Z,1007.1
2016-11-27T05:25:53.542Z,1007.01
2016-11-27T05:27:53.580Z,1007.14
2016-11-27T05:28:53.598Z,1007.17
2016-11-27T05:29:53.613Z,1007.13
2016-11-27T05:30:53.634Z,1007.12
2016-11-27T05:31:53.650Z,1007.12
2016-11-27T05:32:53.771Z,1007.14
2016-11-27T05:33:53.688Z,1007.18
2016-11-27T05:34:53.704Z,1007.2
2016-11-27T05:35:53.724Z,1007.18
2016-11-27T05:36:53.741Z,1007.12
2016-11-27T05:37:53.757Z,1007.2
2016-11-27T05:38:53.775Z,1007.18
2016-11-27T05:39:53.794Z,1007.15
2016-11-27T05:40:53.811Z,1007.2
2016-11-27T05:41:53.831Z,1007.16
2016-11-27T05:43:53.865Z,1007.19
2016-11-27T05:44:53.886Z,1007.23
2016-11-27T05:45:53.903Z,1007.2
2016-11-27T05:46:53.919Z,1007.21
2016-11-27T05:47:53.937Z,1007.19
2016-11-27T05:48:53.955Z,1007.17
2016-11-27T05:49:53.973Z,1007.19
2016-11-27T05:50:53.991Z,1007.15
2016-11-27T05:51:54.008Z,1007.19
2016-11-27T05:52:54.029Z,1007.29
2016-11-27T05:53:54.044Z,1007.23
2016-11-27T05:54:54.063Z,1007.26
2016-11-27T05:55:54.080Z,1007.26
2016-11-27T05:56:54.098Z,1007.21
2016-11-27T05:57:54.118Z,1007.24
2016-11-27T05:59:54.154Z,1007.26
2016-11-27T06:00:54.170Z,1007.24
2016-11-27T06:01:54.190Z,1007.19
2016-11-27T06:02:54.205Z,1007.17
2016-11-27T06:03:54.225Z,1007.21
2016-11-27T06:04:54.244Z,1007.19
2016-11-27T06:05:54.261Z,1007.24
2016-11-27T06:06:54.277Z,1007.26
2016-11-27T06:07:54.295Z,1007.31
2016-11-27T06:08:54.314Z,1007.33
2016-11-27T06:09:54.332Z,1007.4
2016-11-27T06:10:54.348Z,1007.4
2016-11-27T06:11:54.368Z,1007.43
2016-11-27T06:12:54.386Z,1007.41
2016-11-27T06:13:54.403Z,1007.4
2016-11-27T06:15:54.487Z,1007.41
2016-11-27T06:16:54.456Z,1007.4
2016-11-27T06:17:54.472Z,1007.4
2016-11-27T06:18:54.492Z,1007.39
2016-11-27T06:19:54.510Z,1007.35
2016-11-27T06:20:54.525Z,1007.36
2016-11-27T06:21:54.545Z,1007.36
2016-11-27T06:22:54.561Z,1007.37
2016-11-27T06:23:54.581Z,1007.38
2016-11-27T06:24:54.598Z,1007.43
2016-11-27T06:25:54.614Z,1007.42
2016-11-27T06:26:54.632Z,1007.5
2016-11-27T06:27:54.650Z,1007.54
2016-11-27T06:28:54.668Z,1007.49
2016-11-27T06:30:54.704Z,1007.64
2016-11-27T06:31:54.723Z,1007.7
2016-11-27T06:32:54.738Z,1007.69
2016-11-27T06:33:54.759Z,1007.64
2016-11-27T06:34:54.775Z,1007.66
2016-11-27T06:35:54.794Z,1007.65
2016-11-27T06:36:54.812Z,1007.67
2016-11-27T06:37:54.829Z,1007.67
2016-11-27T06:38:54.844Z,1007.65
2016-11-27T06:39:54.864Z,1007.69
2016-11-27T06:40:54.880Z,1007.63
2016-11-27T06:41:54.898Z,1007.72
2016-11-27T06:42:54.916Z,1007.78
2016-11-27T06:43:54.935Z,1007.79
2016-11-27T06:44:54.951Z,1007.8
2016-11-27T06:45:54.971Z,1007.83
2016-11-27T06:46:54.986Z,1007.85
2016-11-27T06:47:55.005Z,1007.76
2016-11-27T06:48:55.023Z,1007.72
2016-11-27T06:49:55.040Z,1007.76
2016-11-27T06:50:55.058Z,1007.82
2016-11-27T06:51:55.074Z,1007.84
2016-11-27T06:52:55.093Z,1007.86
2016-11-27T06:53:55.111Z,1007.85
2016-11-27T06:54:55.129Z,1007.88
2016-11-27T06:55:55.144Z,1007.93
2016-11-27T06:56:55.162Z,1007.88
2016-11-27T06:57:55.181Z,1007.91
2016-11-27T06:58:55.199Z,1007.96
2016-11-27T06:59:55.217Z,1007.94
2016-11-27T07:00:55.232Z,1008
2016-11-27T07:02:55.270Z,1008.04
2016-11-27T07:03:55.338Z,1008.07
2016-11-27T07:04:55.304Z,1008.1
2016-11-27T07:05:55.320Z,1008.18
2016-11-27T07:06:55.340Z,1008.15
2016-11-27T07:07:55.356Z,1008.21
2016-11-27T07:08:55.373Z,1008.13
2016-11-27T07:09:55.391Z,1008.15
2016-11-27T07:10:55.410Z,1008.26
2016-11-27T07:11:55.427Z,1008.28
2016-11-27T07:12:55.445Z,1008.34
2016-11-27T07:13:55.461Z,1008.37
2016-11-27T07:14:55.481Z,1008.41
2016-11-27T07:15:55.496Z,1008.37
2016-11-27T07:16:55.516Z,1008.39
2016-11-27T07:18:55.550Z,1008.39
2016-11-27T07:19:55.569Z,1008.44
2016-11-27T07:20:55.584Z,1008.38
2016-11-27T07:21:55.602Z,1008.41
2016-11-27T07:22:55.619Z,1008.44
2016-11-27T07:23:55.637Z,1008.42
2016-11-27T07:24:55.658Z,1008.45
2016-11-27T07:25:55.675Z,1008.43
2016-11-27T07:26:55.690Z,1008.4
2016-11-27T07:27:55.710Z,1008.41
2016-11-27T07:28:55.726Z,1008.41
2016-11-27T07:29:55.744Z,1008.44
2016-11-27T07:30:55.763Z,1008.45
2016-11-27T07:31:55.781Z,1008.45
2016-11-27T07:32:55.797Z,1008.53
2016-11-27T07:34:55.833Z,1008.52
2016-11-27T07:35:55.851Z,1008.58
2016-11-27T07:36:55.869Z,1008.57
2016-11-27T07:37:55.888Z,1008.59
2016-11-27T07:38:55.906Z,1008.52
2016-11-27T07:39:55.924Z,1008.55
2016-11-27T07:40:55.940Z,1008.52
2016-11-27T07:41:55.959Z,1008.56
2016-11-27T07:42:55.978Z,1008.59
2016-11-27T07:43:55.995Z,1008.58
2016-11-27T07:44:56.011Z,1008.59
2016-11-27T07:45:56.031Z,1008.61
2016-11-27T07:46:56.049Z,1008.56
2016-11-27T07:47:56.065Z,1008.57
2016-11-27T07:48:56.084Z,1008.53
2016-11-27T07:50:56.121Z,1008.56
2016-11-27T07:51:56.137Z,1008.59
2016-11-27T07:52:56.156Z,1008.66
2016-11-27T07:53:56.174Z,1008.56
2016-11-27T07:54:56.192Z,1008.59
2016-11-27T07:55:56.210Z,1008.56
2016-11-27T07:56:56.229Z,1008.55
2016-11-27T07:57:56.244Z,1008.53
2016-11-27T07:58:56.263Z,1008.52
2016-11-27T07:59:56.280Z,1008.51
2016-11-27T08:00:56.298Z,1008.58
2016-11-27T08:01:56.317Z,1008.57
2016-11-27T08:02:56.338Z,1008.55
2016-11-27T08:03:56.353Z,1008.56
2016-11-27T08:05:56.393Z,1008.63
2016-11-27T08:06:56.408Z,1008.62
2016-11-27T08:07:56.426Z,1008.66
2016-11-27T08:08:56.445Z,1008.67
2016-11-27T08:09:56.463Z,1008.63
2016-11-27T08:10:56.480Z,1008.68
2016-11-27T08:11:56.500Z,1008.7
2016-11-27T08:12:56.517Z,1008.68
2016-11-27T08:13:56.534Z,1008.8
2016-11-27T08:14:56.554Z,1008.76
2016-11-27T08:15:56.571Z,1008.81
2016-11-27T08:16:56.591Z,1008.8
2016-11-27T08:17:56.606Z,1008.83
2016-11-27T08:18:56.624Z,1008.83
2016-11-27T08:19:56.643Z,1008.8
2016-11-27T08:20:56.661Z,1008.83
2016-11-27T08:21:56.681Z,1008.85
2016-11-27T08:22:56.699Z,1008.82
2016-11-27T08:23:56.715Z,1008.86
2016-11-27T08:24:56.733Z,1008.85
2016-11-27T08:25:56.754Z,1008.85
2016-11-27T08:26:56.772Z,1008.9
2016-11-27T08:27:56.791Z,1008.81
2016-11-27T08:28:56.806Z,1008.84
2016-11-27T08:29:56.826Z,1008.88
2016-11-27T08:30:56.843Z,1008.87
2016-11-27T08:31:56.861Z,1008.92
2016-11-27T08:32:56.881Z,1008.88
2016-11-27T08:33:56.899Z,1008.95
2016-11-27T08:34:56.916Z,1008.98
2016-11-27T08:35:56.935Z,1008.99
2016-11-27T08:37:56.970Z,1008.97
2016-11-27T08:38:56.991Z,1009.09
2016-11-27T08:39:57.009Z,1009.08
2016-11-27T08:40:57.027Z,1009.06
2016-11-27T08:41:57.044Z,1009.05
2016-11-27T08:42:57.112Z,1009.05
2016-11-27T08:43:57.080Z,1009.05
2016-11-27T08:44:57.098Z,1009.09
2016-11-27T08:45:57.117Z,1009.07
2016-11-27T08:46:57.137Z,1009.07
2016-11-27T08:47:57.206Z,1009.14
2016-11-27T08:48:57.175Z,1009.14
2016-11-27T08:49:57.194Z,1009.13
2016-11-27T08:50:57.209Z,1009.16
2016-11-27T08:51:57.228Z,1009.16
2016-11-27T08:53:57.270Z,1009.21
2016-11-27T08:54:57.286Z,1009.21
2016-11-27T08:55:57.305Z,1009.2
2016-11-27T08:56:57.324Z,1009.23
2016-11-27T08:57:57.339Z,1009.27
2016-11-27T08:58:57.365Z,1009.24
2016-11-27T08:59:57.377Z,1009.25
2016-11-27T09:00:57.398Z,1009.33
2016-11-27T09:01:57.416Z,1009.31
2016-11-27T09:02:57.435Z,1009.29
2016-11-27T09:03:57.504Z,1009.39
2016-11-27T09:04:57.473Z,1009.37
2016-11-27T09:05:57.489Z,1009.39
2016-11-27T09:06:57.508Z,1009.42
2016-11-27T09:07:57.529Z,1009.36
2016-11-27T09:09:57.565Z,1009.43
2016-11-27T09:10:57.584Z,1009.49
2016-11-27T09:11:57.601Z,1009.51
2016-11-27T09:12:57.622Z,1009.45
2016-11-27T09:13:57.638Z,1009.49
2016-11-27T09:14:57.657Z,1009.48
2016-11-27T09:15:57.676Z,1009.42
2016-11-27T09:16:57.694Z,1009.46
2016-11-27T09:17:57.713Z,1009.4
2016-11-27T09:18:57.735Z,1009.45
2016-11-27T09:19:57.756Z,1009.42
2016-11-27T09:20:57.769Z,1009.47
2016-11-27T09:21:57.789Z,1009.44
2016-11-27T09:22:57.808Z,1009.42
2016-11-27T09:23:57.826Z,1009.39
2016-11-27T09:25:57.866Z,1009.37
2016-11-27T09:26:57.883Z,1009.41
2016-11-27T09:27:57.902Z,1009.41
2016-11-27T09:28:57.920Z,1009.44
2016-11-27T09:29:57.939Z,1009.39
2016-11-27T09:30:57.957Z,1009.44
2016-11-27T09:31:57.979Z,1009.44
2016-11-27T09:32:57.998Z,1009.45
2016-11-27T09:33:58.015Z,1009.52
2016-11-27T09:34:58.035Z,1009.42
2016-11-27T09:35:58.052Z,1009.44
2016-11-27T09:36:58.074Z,1009.42
2016-11-27T09:37:58.091Z,1009.43
2016-11-27T09:38:58.110Z,1009.43
2016-11-27T09:40:58.149Z,1009.42
2016-11-27T09:41:58.169Z,1009.44
2016-11-27T09:42:58.188Z,1009.4
2016-11-27T09:43:58.205Z,1009.41
2016-11-27T09:44:58.224Z,1009.48
2016-11-27T09:45:58.242Z,1009.46
2016-11-27T09:46:58.262Z,1009.46
2016-11-27T09:47:58.282Z,1009.54
2016-11-27T09:48:58.299Z,1009.48
2016-11-27T09:49:58.318Z,1009.53
2016-11-27T09:50:58.337Z,1009.55
2016-11-27T09:51:58.359Z,1009.53
2016-11-27T09:52:58.377Z,1009.57
2016-11-27T09:53:58.396Z,1009.6
2016-11-27T09:54:58.413Z,1009.6
2016-11-27T09:55:58.435Z,1009.6
2016-11-27T09:56:58.452Z,1009.58
2016-11-27T09:57:58.472Z,1009.5
2016-11-27T09:58:58.489Z,1009.57
2016-11-27T09:59:58.509Z,1009.56
2016-11-27T10:00:58.527Z,1009.54
2016-11-27T10:01:58.546Z,1009.54
2016-11-27T10:02:58.565Z,1009.6
2016-11-27T10:03:58.585Z,1009.58
2016-11-27T10:04:58.603Z,1009.59
2016-11-27T10:05:58.622Z,1009.63
2016-11-27T10:06:58.642Z,1009.58
2016-11-27T10:07:58.660Z,1009.61
2016-11-27T10:08:58.681Z,1009.63
2016-11-27T10:09:58.701Z,1009.59
2016-11-27T10:10:58.717Z,1009.61
2016-11-27T10:12:58.757Z,1009.58
2016-11-27T10:13:58.775Z,1009.61
2016-11-27T10:14:58.793Z,1009.63
2016-11-27T10:15:58.812Z,1009.6
2016-11-27T10:16:58.834Z,1009.68
2016-11-27T10:17:58.851Z,1009.62
2016-11-27T10:18:58.919Z,1009.63
2016-11-27T10:19:58.889Z,1009.61
2016-11-27T10:20:58.908Z,1009.63
2016-11-27T10:21:58.928Z,1009.68
2016-11-27T10:22:58.948Z,1009.67
2016-11-27T10:23:58.965Z,1009.72
2016-11-27T10:24:58.984Z,1009.64
2016-11-27T10:25:59.003Z,1009.71
2016-11-27T10:26:59.022Z,1009.69
2016-11-27T10:28:59.063Z,1009.65
2016-11-27T10:29:59.079Z,1009.7
2016-11-27T10:30:59.098Z,1009.65
2016-11-27T10:31:59.120Z,1009.72
2016-11-27T10:32:59.138Z,1009.74
2016-11-27T10:33:59.156Z,1009.8
2016-11-27T10:34:59.177Z,1009.77
2016-11-27T10:35:59.199Z,1009.77
2016-11-27T10:36:59.233Z,1009.84
2016-11-27T10:37:59.232Z,1009.88
2016-11-27T10:38:59.253Z,1009.83
2016-11-27T10:39:59.271Z,1009.9
2016-11-27T10:40:59.291Z,1009.87
2016-11-27T10:41:59.311Z,1009.88
2016-11-27T10:42:59.331Z,1009.84
2016-11-27T10:44:59.367Z,1009.85
2016-11-27T10:45:59.387Z,1009.88
2016-11-27T10:46:59.408Z,1009.82
2016-11-27T10:47:59.426Z,1009.8
2016-11-27T10:48:59.446Z,1009.84
2016-11-27T10:49:59.465Z,1009.84
2016-11-27T10:50:59.483Z,1009.82
2016-11-27T10:51:59.504Z,1009.81
2016-11-27T10:52:59.524Z,1009.78
2016-11-27T10:53:59.541Z,1009.75
2016-11-27T10:54:59.563Z,1009.77
2016-11-27T10:55:59.581Z,1009.82
2016-11-27T10:56:59.599Z,1009.82
2016-11-27T10:57:59.618Z,1009.76
2016-11-27T10:58:59.637Z,1009.73
2016-11-27T11:00:59.679Z,1009.83
2016-11-27T11:01:59.697Z,1009.78
2016-11-27T11:02:59.715Z,1009.77
2016-11-27T11:03:59.735Z,1009.81
2016-11-27T11:04:59.757Z,1009.82
2016-11-27T11:05:59.776Z,1009.81
2016-11-27T11:06:59.946Z,1009.83
2016-11-27T11:07:59.815Z,1009.78
2016-11-27T11:08:59.835Z,1009.83
2016-11-27T11:09:59.851Z,1009.83
2016-11-27T11:10:59.873Z,1009.84
2016-11-27T11:11:59.891Z,1009.88
2016-11-27T11:12:59.911Z,1009.84
2016-11-27T11:13:59.931Z,1009.85
2016-11-27T11:15:59.970Z,1009.86
2016-11-27T11:16:59.989Z,1009.91
2016-11-27T11:18:00.010Z,1009.89
2016-11-27T11:19:00.028Z,1009.9
2016-11-27T11:20:00.084Z,1009.92
2016-11-27T11:21:00.067Z,1009.91
2016-11-27T11:22:00.088Z,1009.85
2016-11-27T11:23:00.108Z,1009.92
2016-11-27T11:24:00.125Z,1009.94
2016-11-27T11:25:00.145Z,1009.97
2016-11-27T11:26:00.164Z,1009.98
2016-11-27T11:27:00.184Z,1009.96
2016-11-27T11:28:00.205Z,1009.95
2016-11-27T11:29:00.225Z,1009.91
2016-11-27T11:30:00.243Z,1009.88
2016-11-27T11:31:00.265Z,1009.89
2016-11-27T11:32:00.284Z,1009.82
2016-11-27T11:33:00.304Z,1009.83
2016-11-27T11:34:00.324Z,1009.79
2016-11-27T11:35:00.343Z,1009.89
2016-11-27T11:36:00.363Z,1009.8
2016-11-27T11:37:00.382Z,1009.75
2016-11-27T11:38:00.402Z,1009.79
2016-11-27T11:39:00.419Z,1009.72
2016-11-27T11:40:00.440Z,1009.72
2016-11-27T11:41:00.461Z,1009.71
2016-11-27T11:42:00.479Z,1009.67
2016-11-27T11:43:00.500Z,1009.67
2016-11-27T11:44:00.517Z,1009.71
2016-11-27T11:45:00.539Z,1009.7
2016-11-27T11:46:00.556Z,1009.7
2016-11-27T11:48:00.597Z,1009.7
2016-11-27T11:49:00.615Z,1009.69
2016-11-27T11:50:00.635Z,1009.71
2016-11-27T11:51:00.656Z,1009.73
2016-11-27T11:52:00.673Z,1009.72
2016-11-27T11:53:00.695Z,1009.65
2016-11-27T11:54:00.714Z,1009.66
2016-11-27T11:55:00.733Z,1009.67
2016-11-27T11:56:00.751Z,1009.59
2016-11-27T11:57:00.772Z,1009.69
2016-11-27T11:58:00.791Z,1009.67
2016-11-27T11:59:00.810Z,1009.68
2016-11-27T12:00:00.829Z,1009.7
2016-11-27T12:01:00.849Z,1009.7
2016-11-27T12:02:00.868Z,1009.78
2016-11-27T12:04:00.907Z,1009.77
2016-11-27T12:05:00.925Z,1009.79
2016-11-27T12:06:00.952Z,1009.77
2016-11-27T12:07:00.967Z,1009.79
2016-11-27T12:08:00.984Z,1009.79
2016-11-27T12:09:01.004Z,1009.81
2016-11-27T12:10:01.026Z,1009.8
2016-11-27T12:11:01.044Z,1009.78
2016-11-27T12:12:01.063Z,1009.83
2016-11-27T12:13:01.083Z,1009.72
2016-11-27T12:14:01.103Z,1009.81
2016-11-27T12:15:01.125Z,1009.85
2016-11-27T12:16:01.143Z,1009.88
2016-11-27T12:17:01.164Z,1009.83
2016-11-27T12:18:01.184Z,1009.86
2016-11-27T12:20:01.223Z,1009.83
2016-11-27T12:21:01.240Z,1009.78
2016-11-27T12:22:01.260Z,1009.83
2016-11-27T12:23:01.279Z,1009.84
2016-11-27T12:24:01.299Z,1009.82
2016-11-27T12:25:01.319Z,1009.85
2016-11-27T12:26:01.340Z,1009.89
2016-11-27T12:27:01.357Z,1009.88
2016-11-27T12:28:01.379Z,1009.93
2016-11-27T12:29:01.396Z,1009.83
2016-11-27T12:30:01.417Z,1009.87
2016-11-27T12:31:01.437Z,1009.86
2016-11-27T12:32:01.457Z,1009.95
2016-11-27T12:33:01.477Z,1009.91
2016-11-27T12:34:01.493Z,1009.9
2016-11-27T12:36:01.533Z,1009.9
2016-11-27T12:37:01.563Z,1009.93
2016-11-27T12:38:01.571Z,1009.96
2016-11-27T12:39:01.593Z,1009.97
2016-11-27T12:40:01.610Z,1009.93
2016-11-27T12:41:01.631Z,1009.96
2016-11-27T12:42:01.651Z,1009.98
2016-11-27T12:43:01.672Z,1009.96
2016-11-27T12:44:01.688Z,1010.01
2016-11-27T12:45:01.709Z,1009.98
2016-11-27T12:46:01.728Z,1010.01
2016-11-27T12:47:01.748Z,1010.02
2016-11-27T12:48:01.766Z,1010.06
2016-11-27T12:49:01.795Z,1010.12